Time;durP1;ratioP1;P1;durP2;ratioP2;P2;SDS_P1;SDS_P2;PMS_P1;PMS_P2;Temp;Humidity;BMP_temperature;BMP_pressure;BME280_temperature;BME280_humidity;BME280_pressure;Samples;Min_cycle;Max_cycle;Signal;HPM_P1;HPM_P2
2021/12/13 00:00:15;;;;;;;5.47;1.95;;;;;;;13.87;83.07;101743.50;7388598;19;20603;-69
2021/12/13 00:02:51;;;;;;;3.78;0.68;;;;;;;13.88;82.81;101745.16;7386652;19;20015;-68
2021/12/13 00:05:22;;;;;;;8.50;0.40;;;;;;;13.84;82.48;101751.75;7390703;19;20011;-67
2021/12/13 00:07:55;;;;;;;5.75;0.50;;;;;;;13.84;82.47;101754.38;7390309;19;20007;-67
2021/12/13 00:10:29;;;;;;;5.28;0.73;;;;;;;13.84;82.77;101755.22;7392589;19;20117;-68
2021/12/13 00:13:07;;;;;;;6.63;1.13;;;;;;;13.82;82.30;101756.34;7387072;19;20452;-67
2021/12/13 00:15:42;;;;;;;2.22;0.80;;;;;;;13.85;83.72;101767.47;7391555;19;20023;-69
2021/12/13 00:18:17;;;;;;;4.78;0.75;;;;;;;13.86;84.31;101763.84;7388035;19;20019;-69
2021/12/13 00:20:52;;;;;;;4.38;0.40;;;;;;;13.86;84.13;101771.78;7385205;19;20028;-67
2021/12/13 00:23:26;;;;;;;5.45;0.45;;;;;;;13.88;84.38;101775.09;7391669;19;20027;-68
2021/12/13 00:25:56;;;;;;;3.53;0.20;;;;;;;13.90;83.73;101778.44;7389281;19;20015;-69
2021/12/13 00:28:30;;;;;;;4.53;0.30;;;;;;;13.88;83.54;101768.97;7387123;19;20035;-68
2021/12/13 00:31:01;;;;;;;2.65;0.60;;;;;;;13.87;83.16;101768.13;7387025;19;20009;-69
2021/12/13 00:33:36;;;;;;;2.50;0.30;;;;;;;13.88;83.37;101766.31;7389910;19;20451;-69
2021/12/13 00:36:15;;;;;;;2.47;0.30;;;;;;;13.83;83.30;101764.13;7234810;19;2968047;-69
2021/12/13 00:38:48;;;;;;;7.47;1.42;;;;;;;13.86;83.95;101776.25;7389796;19;20011;-67
2021/12/13 00:41:21;;;;;;;7.10;0.60;;;;;;;13.80;83.73;101779.50;7390890;19;20337;-69
2021/12/13 00:43:54;;;;;;;3.55;0.50;;;;;;;13.84;84.24;101786.97;7389180;19;20019;-69
2021/12/13 00:46:24;;;;;;;4.35;0.60;;;;;;;13.87;84.99;101775.25;7388912;19;20011;-69
2021/12/13 00:48:54;;;;;;;2.30;0.20;;;;;;;13.79;83.66;101773.38;7390201;19;20343;-68
2021/12/13 00:51:28;;;;;;;5.25;0.40;;;;;;;13.78;83.84;101770.84;7390145;19;20081;-68
2021/12/13 00:54:00;;;;;;;3.97;0.32;;;;;;;13.78;84.27;101766.41;7392174;19;20014;-68
2021/12/13 00:56:33;;;;;;;5.07;0.57;;;;;;;13.81;84.70;101766.13;7391286;19;20023;-69
2021/12/13 00:59:01;;;;;;;4.50;0.40;;;;;;;13.82;84.89;101759.81;7391378;19;20487;-69
2021/12/13 01:01:28;;;;;;;4.65;0.50;;;;;;;13.84;85.50;101771.09;7391968;19;20011;-67
2021/12/13 01:03:57;;;;;;;9.05;1.23;;;;;;;13.79;85.15;101762.78;7392022;19;20014;-67
2021/12/13 01:06:31;;;;;;;1.83;0.40;;;;;;;13.82;85.00;101769.56;7392152;19;20011;-69
2021/12/13 01:09:04;;;;;;;9.10;0.52;;;;;;;13.83;85.66;101758.84;7393345;19;20018;-69
2021/12/13 01:11:44;;;;;;;2.53;0.20;;;;;;;13.79;85.23;101757.50;7389301;19;20091;-68
2021/12/13 01:14:19;;;;;;;0.60;0.20;;;;;;;13.75;84.85;101755.31;7387222;19;20011;-67
2021/12/13 01:19:46;;;;;;;4.63;0.60;;;;;;;13.75;85.98;101756.13;7387719;19;20011;-69
2021/12/13 01:27:22;;;;;;;9.50;0.98;;;;;;;13.66;85.97;101746.47;7393784;19;20015;-69
2021/12/13 01:29:51;;;;;;;4.28;0.35;;;;;;;13.62;85.65;101745.91;7391636;19;20010;-69
2021/12/13 01:32:19;;;;;;;5.35;0.43;;;;;;;13.63;85.65;101738.81;7386525;19;20007;-70
2021/12/13 01:34:46;;;;;;;5.13;0.90;;;;;;;13.57;85.27;101744.69;7391062;19;20015;-66
2021/12/13 01:37:15;;;;;;;5.25;0.30;;;;;;;13.54;85.57;101737.91;7390109;19;20504;-69
2021/12/13 01:39:46;;;;;;;3.53;0.73;;;;;;;13.54;86.11;101734.44;7387691;19;20093;-68
2021/12/13 01:42:20;;;;;;;5.75;0.80;;;;;;;13.54;86.52;101723.84;7387272;19;20013;-68
2021/12/13 01:44:54;;;;;;;3.63;0.40;;;;;;;13.49;85.75;101723.47;7389828;19;20018;-68
2021/12/13 01:47:26;;;;;;;9.50;1.25;;;;;;;13.44;85.66;101718.63;7388763;19;20018;-67
2021/12/13 01:50:04;;;;;;;2.97;0.30;;;;;;;13.43;86.15;101716.97;7390383;19;20014;-67
2021/12/13 01:52:36;;;;;;;2.67;0.30;;;;;;;13.44;86.31;101718.63;7387859;19;20127;-69
2021/12/13 01:55:13;;;;;;;2.97;0.47;;;;;;;13.44;86.54;101729.19;7386442;19;20015;-68
2021/12/13 01:57:49;;;;;;;4.10;0.70;;;;;;;13.40;86.74;101727.84;7386803;19;20006;-68
2021/12/13 02:01:08;;;;;;;2.85;0.50;;;;;;;13.40;86.24;101730.50;7389463;19;20566;-69
2021/12/13 02:03:20;;;;;;;;;;;;;;;13.35;86.29;101731.91;7387888;19;20038;-71
2021/12/13 02:05:49;;;;;;;1.50;0.40;;;;;;;13.32;86.78;101732.19;7388681;19;19921;-68
2021/12/13 02:08:23;;;;;;;2.58;0.30;;;;;;;13.31;87.39;101722.63;7389936;19;20099;-68
2021/12/13 02:10:54;;;;;;;4.25;1.60;;;;;;;13.35;88.33;101724.81;7386656;19;20047;-68
2021/12/13 02:13:28;;;;;;;2.53;0.40;;;;;;;13.34;88.59;101715.22;7389477;19;20339;-69
2021/12/13 02:18:36;;;;;;;5.75;0.50;;;;;;;13.36;89.38;101721.16;7387268;19;20022;-69
2021/12/13 02:21:12;;;;;;;2.20;0.20;;;;;;;13.33;88.79;101723.28;7386800;19;20018;-68
2021/12/13 02:23:43;;;;;;;3.45;0.57;;;;;;;13.33;89.00;101723.28;7385729;19;20010;-68
2021/12/13 02:26:11;;;;;;;2.78;0.30;;;;;;;13.33;89.07;101725.94;7387706;19;20038;-69
2021/12/13 02:28:43;;;;;;;7.63;1.08;;;;;;;13.31;88.62;101730.53;7388861;19;20018;-69
2021/12/13 02:31:20;;;;;;;4.07;0.30;;;;;;;13.31;89.18;101734.00;7391067;19;20423;-68
2021/12/13 02:33:55;;;;;;;2.65;0.40;;;;;;;13.28;88.91;101732.50;7385304;19;20015;-68
2021/12/13 02:36:27;;;;;;;3.17;0.30;;;;;;;13.26;89.45;101737.09;7385805;19;20015;-69
2021/12/13 02:38:59;;;;;;;2.60;0.30;;;;;;;13.19;88.75;101737.84;7383845;19;20483;-68
2021/12/13 02:41:31;;;;;;;5.05;0.30;;;;;;;13.16;89.32;101741.59;7383292;19;20007;-68
2021/12/13 02:44:06;;;;;;;3.03;0.30;;;;;;;13.14;89.50;101742.72;7385746;19;20070;-68
2021/12/13 02:46:35;;;;;;;3.42;0.60;;;;;;;13.12;89.76;101732.31;7386734;19;20018;-69
2021/12/13 02:49:07;;;;;;;2.20;0.35;;;;;;;13.12;89.81;101742.03;7390375;19;20015;-68
2021/12/13 02:51:39;;;;;;;1.65;0.20;;;;;;;13.13;89.64;101744.53;7384953;19;20454;-69
2021/12/13 02:54:06;;;;;;;2.35;0.30;;;;;;;13.16;90.47;101738.94;7387268;19;20428;-67
2021/12/13 02:56:42;;;;;;;3.42;0.30;;;;;;;13.17;89.88;101742.44;7388176;19;20315;-67
2021/12/13 02:59:11;;;;;;;7.50;3.33;;;;;;;13.20;90.12;101744.78;7387489;19;20115;-69
2021/12/13 03:01:40;;;;;;;3.10;0.40;;;;;;;13.18;89.49;101739.66;7386733;19;20017;-68
2021/12/13 03:04:11;;;;;;;11.73;2.70;;;;;;;13.23;89.54;101740.03;7385670;19;20031;-69
2021/12/13 03:06:46;;;;;;;4.47;1.13;;;;;;;13.28;89.98;101750.16;7384375;19;20409;-68
2021/12/13 03:09:20;;;;;;;3.55;0.38;;;;;;;13.23;88.79;101747.97;7387581;19;20007;-68
2021/12/13 03:11:54;;;;;;;3.13;0.50;;;;;;;13.27;89.87;101757.25;7388175;19;20341;-67
2021/12/13 03:14:26;;;;;;;4.18;0.30;;;;;;;13.32;89.28;101755.97;7384825;19;20019;-66
2021/12/13 03:16:57;;;;;;;2.42;0.40;;;;;;;13.30;88.04;101757.94;7384229;19;20023;-69
2021/12/13 03:19:35;;;;;;;4.22;0.47;;;;;;;13.32;88.37;101758.63;7383533;19;20022;-68
2021/12/13 03:22:09;;;;;;;2.53;0.22;;;;;;;13.32;88.31;101758.63;7384046;19;20007;-68
2021/12/13 03:24:36;;;;;;;4.15;0.60;;;;;;;13.30;88.28;101750.84;7385889;19;20023;-68
2021/12/13 03:27:04;;;;;;;2.92;0.32;;;;;;;13.31;88.10;101752.50;7390853;19;20440;-68
2021/12/13 03:29:42;;;;;;;3.60;0.95;;;;;;;13.31;87.97;101764.91;7396733;19;20074;-68
2021/12/13 03:32:13;;;;;;;5.05;0.32;;;;;;;13.29;88.00;101754.47;7393127;19;20018;-68
2021/12/13 03:34:51;;;;;;;54.72;7.85;;;;;;;13.32;88.09;101756.81;7391046;19;20074;-67
2021/12/13 03:37:26;;;;;;;4.78;1.00;;;;;;;13.33;89.12;101755.00;7393345;19;20475;-67
2021/12/13 03:39:59;;;;;;;5.13;0.30;;;;;;;13.33;88.12;101747.06;7390861;19;20367;-69
2021/12/13 03:42:32;;;;;;;4.97;1.15;;;;;;;13.36;88.50;101752.88;7390838;19;20422;-69
2021/12/13 03:45:04;;;;;;;2.90;0.40;;;;;;;13.36;88.11;101752.88;7395680;19;20029;-68
2021/12/13 03:47:39;;;;;;;13.55;5.18;;;;;;;13.36;88.64;101755.53;7392100;19;20020;-69
2021/12/13 03:50:11;;;;;;;2.63;0.52;;;;;;;13.37;88.62;101761.66;7392205;19;20031;-69
2021/12/13 03:52:43;;;;;;;4.57;0.55;;;;;;;13.37;88.11;101753.72;7393161;19;20215;-68
2021/12/13 03:55:15;;;;;;;6.97;1.17;;;;;;;13.37;87.83;101765.13;7394353;19;20415;-68
2021/12/13 03:57:47;;;;;;;2.13;0.40;;;;;;;13.31;87.60;101767.56;7393041;19;20014;-68
2021/12/13 04:00:19;;;;;;;5.07;0.32;;;;;;;13.24;87.25;101765.50;7392894;19;20078;-69
2021/12/13 04:02:47;;;;;;;2.08;0.20;;;;;;;13.23;87.53;101763.00;7394360;19;20484;-68
2021/12/13 04:05:18;;;;;;;6.47;2.63;;;;;;;13.23;87.81;101761.19;7392081;19;20026;-70
2021/12/13 04:07:50;;;;;;;3.15;0.60;;;;;;;13.27;88.67;101759.06;7390980;19;20401;-67
2021/12/13 04:10:22;;;;;;;2.37;0.20;;;;;;;13.28;88.00;101758.09;7390303;19;20014;-68
2021/12/13 04:12:53;;;;;;;9.88;4.07;;;;;;;13.28;88.50;101763.38;7396245;19;20078;-68
2021/12/13 04:15:30;;;;;;;4.82;0.30;;;;;;;13.27;88.78;101759.91;7390115;19;20066;-69
2021/12/13 04:18:12;;;;;;;8.60;2.00;;;;;;;13.24;88.11;101747.00;7396464;19;20159;-68
2021/12/13 04:20:42;;;;;;;2.70;0.30;;;;;;;13.26;89.59;101754.75;7390413;19;20028;-68
2021/12/13 04:23:15;;;;;;;5.80;1.55;;;;;;;13.26;88.74;101757.41;7391076;19;20082;-67
2021/12/13 04:25:45;;;;;;;2.30;0.52;;;;;;;13.25;88.78;101753.94;7393409;19;20017;-68
2021/12/13 04:28:17;;;;;;;2.80;0.30;;;;;;;13.21;88.31;101749.91;7392686;19;20078;-67
2021/12/13 04:30:51;;;;;;;8.20;2.05;;;;;;;13.19;88.36;101754.53;7395974;19;20586;-69
2021/12/13 04:33:22;;;;;;;4.05;0.40;;;;;;;13.21;88.82;101749.91;7389351;19;20539;-67
2021/12/13 04:35:54;;;;;;;2.55;1.30;;;;;;;13.20;88.09;101756.19;7390128;19;20021;-66
2021/12/13 04:38:30;;;;;;;2.45;0.30;;;;;;;13.19;88.43;101749.25;7386977;19;20075;-66
2021/12/13 04:40:57;;;;;;;3.67;0.30;;;;;;;13.18;88.25;101760.78;7391250;19;20007;-67
2021/12/13 04:43:24;;;;;;;2.08;0.45;;;;;;;13.17;88.28;101753.84;7389247;19;20011;-67
2021/12/13 04:45:58;;;;;;;2.75;0.30;;;;;;;13.14;88.40;101762.06;7388103;19;20065;-68
2021/12/13 04:48:30;;;;;;;2.35;0.47;;;;;;;13.16;88.56;101759.25;7388440;19;20017;-68
2021/12/13 04:51:04;;;;;;;3.70;0.40;;;;;;;13.18;89.08;101766.06;7388479;19;20014;-68
2021/12/13 04:53:39;;;;;;;1.30;0.20;;;;;;;13.18;88.62;101760.78;7390574;19;20011;-68
2021/12/13 04:56:13;;;;;;;2.67;0.38;;;;;;;13.18;88.04;101766.06;7392775;19;20047;-67
2021/12/13 04:58:43;;;;;;;1.98;0.20;;;;;;;13.17;88.05;101767.03;7392428;19;20024;-67
2021/12/13 05:01:12;;;;;;;5.88;1.10;;;;;;;13.18;88.46;101766.06;7393661;19;20086;-67
2021/12/13 05:03:49;;;;;;;2.97;0.20;;;;;;;13.16;88.01;101767.19;7391248;19;20026;-70
2021/12/13 05:06:20;;;;;;;3.40;0.30;;;;;;;13.12;87.55;101765.81;7389516;19;20015;-67
2021/12/13 05:08:51;;;;;;;0.63;0.20;;;;;;;13.06;88.02;101758.44;7391893;19;20074;-68
2021/12/13 05:11:18;;;;;;;1.80;0.20;;;;;;;13.05;87.95;101757.63;7388963;19;20015;-68
2021/12/13 05:13:51;;;;;;;1.58;0.30;;;;;;;13.05;88.90;101757.63;7387761;19;20036;-68
2021/12/13 05:16:27;;;;;;;1.52;0.10;;;;;;;13.02;88.64;101771.13;7392237;19;20014;-68
2021/12/13 05:18:56;;;;;;;3.85;0.30;;;;;;;12.98;87.85;101775.03;7388024;19;20467;-67
2021/12/13 05:21:36;;;;;;;3.17;0.30;;;;;;;12.95;88.68;101772.69;7387194;19;20010;-69
2021/12/13 05:24:10;;;;;;;3.95;2.08;;;;;;;12.96;88.79;101779.59;7386770;19;20014;-68
2021/12/13 05:26:43;;;;;;;0.98;0.50;;;;;;;12.98;89.26;101779.47;7391690;19;20087;-67
2021/12/13 05:29:16;;;;;;;3.70;0.28;;;;;;;12.98;89.41;101777.66;7393147;19;20010;-68
2021/12/13 05:31:51;;;;;;;1.92;0.57;;;;;;;12.99;89.18;101783.78;7393830;19;20011;-68
2021/12/13 05:34:19;;;;;;;3.55;0.30;;;;;;;12.99;88.94;101781.97;7388827;19;20471;-70
2021/12/13 05:36:56;;;;;;;7.32;2.70;;;;;;;12.97;88.59;101778.63;7386131;19;20539;-67
2021/12/13 05:39:26;;;;;;;4.20;0.30;;;;;;;12.98;88.85;101777.66;7386903;19;20646;-67
2021/12/13 05:41:59;;;;;;;2.83;0.40;;;;;;;13.01;88.87;101777.38;7386233;19;20007;-69
2021/12/13 05:44:33;;;;;;;7.63;2.97;;;;;;;13.05;89.80;101773.47;7385363;19;20485;-67
2021/12/13 05:47:05;;;;;;;1.85;0.20;;;;;;;13.08;89.12;101772.34;7388022;19;20014;-69
2021/12/13 05:49:41;;;;;;;5.97;1.83;;;;;;;13.06;88.57;101769.84;7389650;19;20014;-69
2021/12/13 05:52:14;;;;;;;2.22;0.30;;;;;;;13.08;88.87;101767.91;7387429;19;20361;-67
2021/12/13 05:54:48;;;;;;;2.15;0.30;;;;;;;13.07;88.67;101768.88;7387355;19;20352;-66
2021/12/13 05:57:19;;;;;;;3.00;0.30;;;;;;;13.04;88.59;101773.63;7387317;19;20521;-67
2021/12/13 05:59:51;;;;;;;1.65;0.20;;;;;;;13.06;88.76;101779.56;7388676;19;20481;-68
2021/12/13 06:02:31;;;;;;;4.00;0.73;;;;;;;13.08;89.65;101773.19;7390413;19;20034;-67
2021/12/13 06:05:04;;;;;;;2.35;0.55;;;;;;;13.11;89.50;101772.91;7387646;19;20479;-68
2021/12/13 06:07:33;;;;;;;;;;;;;;;13.14;89.19;101777.09;7386697;19;20076;-68
2021/12/13 06:10:02;;;;;;;2.58;0.22;;;;;;;13.11;89.23;101779.97;7386855;19;20032;-68
2021/12/13 06:12:33;;;;;;;1.35;0.22;;;;;;;13.11;88.92;101785.25;7385888;19;20033;-68
2021/12/13 06:15:19;;;;;;;2.28;0.30;;;;;;;13.14;89.83;101779.72;7388890;19;20011;-67
2021/12/13 06:17:54;;;;;;;1.20;0.30;;;;;;;13.17;89.57;101787.34;7390877;19;20027;-68
2021/12/13 06:20:33;;;;;;;6.85;3.17;;;;;;;13.19;89.24;101786.25;7387248;19;20006;-67
2021/12/13 06:23:03;;;;;;;;;;;;;;;13.23;90.11;101790.25;7390627;19;20026;-66
2021/12/13 06:25:30;;;;;;;9.82;3.47;;;;;;;13.23;89.42;101789.41;7388535;19;20266;-68
2021/12/13 06:27:59;;;;;;;3.58;0.40;;;;;;;13.26;89.96;101797.03;7386415;19;20011;-68
2021/12/13 06:30:30;;;;;;;6.05;0.60;;;;;;;13.25;89.69;101796.25;7389339;19;20480;-68
2021/12/13 06:33:02;;;;;;;2.88;0.40;;;;;;;13.30;90.22;101798.44;7388169;19;20090;-68
2021/12/13 06:35:35;;;;;;;1.42;0.20;;;;;;;13.34;89.92;101804.25;7385601;19;20417;-69
2021/12/13 06:38:13;;;;;;;6.32;1.30;;;;;;;13.36;89.72;101805.75;7386929;19;20014;-68
2021/12/13 06:40:47;;;;;;;3.47;0.35;;;;;;;13.36;89.46;101812.88;7386621;19;20022;-67
2021/12/13 06:43:21;;;;;;;5.25;2.15;;;;;;;13.37;89.35;101815.34;7385602;19;20018;-67
2021/12/13 06:45:48;;;;;;;4.97;0.38;;;;;;;13.41;89.57;101823.84;7387070;19;20010;-69
2021/12/13 06:48:16;;;;;;;1.95;0.30;;;;;;;13.39;88.89;101818.69;7385386;19;20265;-69
2021/12/13 06:50:47;;;;;;;9.68;2.30;;;;;;;13.38;88.87;101814.38;7386768;19;20014;-68
2021/12/13 06:53:17;;;;;;;2.50;0.30;;;;;;;13.40;89.08;101807.16;7386145;19;20658;-68
2021/12/13 06:55:46;;;;;;;6.15;2.28;;;;;;;13.41;89.56;101819.38;7388957;19;20006;-68
2021/12/13 06:58:22;;;;;;;3.40;0.28;;;;;;;13.43;89.96;101824.53;7387735;19;20387;-69
2021/12/13 07:00:57;;;;;;;6.25;0.88;;;;;;;13.42;89.40;101823.69;7388294;19;20017;-66
2021/12/13 07:03:32;;;;;;;5.35;0.40;;;;;;;13.46;89.98;101829.53;7390277;19;20013;-69
2021/12/13 07:06:03;;;;;;;3.45;0.25;;;;;;;13.48;89.59;101832.84;7392143;19;20013;-69
2021/12/13 07:08:35;;;;;;;2.60;0.22;;;;;;;13.47;89.69;101833.81;7395707;19;20674;-68
2021/12/13 07:11:08;;;;;;;3.92;0.20;;;;;;;13.48;89.42;101838.97;7395173;19;20010;-67
2021/12/13 07:13:37;;;;;;;;;;;;;;;13.49;89.38;101837.16;7396042;19;20018;-67
2021/12/13 07:16:07;;;;;;;2.13;0.40;;;;;;;13.48;90.11;101838.13;7393456;19;19915;-69
2021/12/13 07:18:40;;;;;;;2.75;0.20;;;;;;;13.48;89.64;101838.97;7391634;19;20011;-68
2021/12/13 07:21:12;;;;;;;2.80;0.75;;;;;;;13.50;89.82;101844.94;7392196;19;20015;-69
2021/12/13 07:23:45;;;;;;;2.95;0.20;;;;;;;13.49;89.37;101848.56;7392145;19;20072;-69
2021/12/13 07:26:12;;;;;;;4.78;1.13;;;;;;;13.51;89.90;101851.06;7393187;19;20081;-69
2021/12/13 07:28:40;;;;;;;4.13;0.65;;;;;;;13.53;89.63;101844.66;7393984;19;20014;-69
2021/12/13 07:31:09;;;;;;;3.15;0.40;;;;;;;13.53;89.16;101849.94;7392438;19;20022;-67
2021/12/13 07:33:43;;;;;;;4.45;0.60;;;;;;;13.52;89.45;101850.91;7391001;19;20014;-68
2021/12/13 07:36:14;;;;;;;4.90;0.30;;;;;;;13.49;89.51;101848.56;7392762;19;20022;-67
2021/12/13 07:38:50;;;;;;;5.50;1.95;;;;;;;13.46;89.66;101846.19;7392567;19;20023;-67
2021/12/13 07:41:20;;;;;;;2.22;0.20;;;;;;;13.45;89.69;101854.31;7389691;19;20011;-68
2021/12/13 07:43:47;;;;;;;0.80;0.30;;;;;;;13.40;89.47;101849.44;7393128;19;20015;-68
2021/12/13 07:46:18;;;;;;;1.85;0.30;;;;;;;13.37;89.38;101855.00;7391275;19;20015;-68
2021/12/13 07:48:46;;;;;;;0.88;0.20;;;;;;;13.35;89.70;101857.00;7396226;19;20498;-68
2021/12/13 07:51:18;;;;;;;1.63;0.50;;;;;;;13.36;89.82;101871.03;7395806;19;20370;-69
2021/12/13 07:53:51;;;;;;;1.35;0.20;;;;;;;13.35;90.05;101875.50;7393376;19;20028;-67
2021/12/13 07:56:23;;;;;;;5.28;1.55;;;;;;;13.36;89.94;101876.34;7393778;19;20082;-68
2021/12/13 07:58:58;;;;;;;2.38;0.40;;;;;;;13.39;90.31;101878.66;7391343;19;20022;-67
2021/12/13 08:01:29;;;;;;;7.63;3.92;;;;;;;13.37;90.27;101876.16;7390635;19;20492;-68
2021/12/13 08:04:05;;;;;;;2.53;0.63;;;;;;;13.40;91.43;101888.28;7392444;19;20022;-68
2021/12/13 08:06:38;;;;;;;4.95;0.30;;;;;;;13.46;91.55;101887.69;7390333;19;20070;-69
2021/12/13 08:09:11;;;;;;;36.33;7.10;;;;;;;13.48;92.47;101898.94;7393969;19;20079;-67
2021/12/13 08:11:42;;;;;;;1.52;0.57;;;;;;;13.49;92.57;101900.63;7389740;19;20363;-67
2021/12/13 08:14:10;;;;;;;5.65;2.10;;;;;;;13.51;92.85;101906.59;7390767;19;20007;-68
2021/12/13 08:16:46;;;;;;;4.45;1.02;;;;;;;13.49;93.25;101908.56;7391254;19;20022;-69
2021/12/13 08:19:22;;;;;;;3.17;0.40;;;;;;;13.49;93.22;101914.69;7389243;19;20002;-67
2021/12/13 08:21:55;;;;;;;2.20;0.70;;;;;;;13.51;93.86;101920.63;7387226;19;20052;-69
2021/12/13 08:24:26;;;;;;;3.35;0.40;;;;;;;13.50;93.23;101921.63;7389202;19;20010;-68
2021/12/13 08:27:00;;;;;;;3.05;0.50;;;;;;;13.45;93.10;101917.75;7389234;19;20014;-69
2021/12/13 08:29:32;;;;;;;1.90;0.47;;;;;;;13.44;93.09;101922.22;7391069;19;20542;-68
2021/12/13 08:32:07;;;;;;;3.85;1.25;;;;;;;13.44;93.31;101924.00;7395118;19;20026;-70
2021/12/13 08:34:40;;;;;;;2.58;1.08;;;;;;;13.44;93.64;101926.66;7389810;19;20042;-67
2021/12/13 08:37:13;;;;;;;4.13;1.27;;;;;;;13.45;93.74;101923.03;7389316;19;20050;-68
2021/12/13 08:39:41;;;;;;;22.85;2.90;;;;;;;13.43;93.33;101933.75;7391010;19;20003;-70
2021/12/13 08:42:15;;;;;;;4.47;0.73;;;;;;;13.44;93.54;101931.94;7387216;19;20350;-68
2021/12/13 08:44:45;;;;;;;8.43;2.33;;;;;;;13.43;93.36;101932.91;7388769;19;20006;-67
2021/12/13 08:47:18;;;;;;;2.30;0.50;;;;;;;13.42;93.39;101941.81;7391545;19;20023;-68
2021/12/13 08:49:48;;;;;;;62.53;13.52;;;;;;;13.42;93.39;101942.66;7390241;19;20015;-67
2021/12/13 08:52:22;;;;;;;2.45;1.02;;;;;;;13.44;94.20;101946.00;7391597;19;20027;-69
2021/12/13 08:54:56;;;;;;;1.35;0.52;;;;;;;13.42;93.66;101949.75;7389616;19;20023;-69
2021/12/13 08:57:28;;;;;;;3.85;1.30;;;;;;;13.44;93.94;101953.09;7388703;19;20006;-68
2021/12/13 08:59:57;;;;;;;2.75;0.60;;;;;;;13.41;93.94;101948.91;7390413;19;20011;-67
2021/12/13 09:02:29;;;;;;;3.33;0.68;;;;;;;13.51;95.71;101952.38;7387647;19;20018;-68
2021/12/13 09:05:02;;;;;;;16.08;4.55;;;;;;;13.57;95.79;101958.88;7388038;19;20025;-69
2021/12/13 09:07:29;;;;;;;;;;;;;;;13.58;93.88;101963.22;7390806;19;20116;-67
2021/12/13 09:09:57;;;;;;;4.72;0.95;;;;;;;13.55;93.09;101961.69;7390437;19;19946;-68
2021/12/13 09:12:31;;;;;;;7.90;0.80;;;;;;;13.53;92.81;101962.81;7387620;19;20014;-69
2021/12/13 09:15:06;;;;;;;9.10;1.77;;;;;;;13.52;92.61;101967.25;7387797;19;20006;-69
2021/12/13 09:17:41;;;;;;;6.07;1.45;;;;;;;13.54;92.63;101967.13;7389227;19;20006;-68
2021/12/13 09:20:14;;;;;;;4.25;0.80;;;;;;;13.56;92.29;101967.81;7387349;19;20006;-69
2021/12/13 09:22:47;;;;;;;6.40;2.03;;;;;;;13.51;92.39;101968.22;7386832;19;20010;-68
2021/12/13 09:25:21;;;;;;;5.43;1.00;;;;;;;13.52;92.05;101961.97;7385544;19;20598;-68
2021/12/13 09:27:55;;;;;;;4.72;0.90;;;;;;;13.54;91.26;101964.47;7386640;19;20007;-67
2021/12/13 09:30:30;;;;;;;6.55;1.20;;;;;;;13.58;91.36;101973.78;7390475;19;20577;-69
2021/12/13 09:33:06;;;;;;;13.70;4.15;;;;;;;13.61;91.29;101971.69;7387085;19;20007;-70
2021/12/13 09:35:39;;;;;;;4.82;1.23;;;;;;;13.61;90.77;101976.97;7386455;19;20006;-69
2021/12/13 09:38:12;;;;;;;4.72;0.57;;;;;;;13.67;89.99;101978.22;7386712;19;20013;-67
2021/12/13 09:40:42;;;;;;;8.52;3.33;;;;;;;13.69;89.68;101984.19;7387048;19;20010;-67
2021/12/13 09:43:09;;;;;;;5.15;0.88;;;;;;;13.68;89.58;101980.72;7387740;19;20042;-69
2021/12/13 09:45:46;;;;;;;5.20;1.08;;;;;;;13.69;89.34;101977.09;7388916;19;20417;-68
2021/12/13 09:48:19;;;;;;;7.20;1.48;;;;;;;13.74;89.37;101983.75;7391820;19;20395;-69
2021/12/13 09:50:50;;;;;;;4.55;0.70;;;;;;;13.77;89.05;101989.59;7386128;19;20404;-68
2021/12/13 09:53:25;;;;;;;4.95;0.95;;;;;;;13.74;88.35;101983.75;7387867;19;20015;-70
2021/12/13 09:55:52;;;;;;;3.75;0.52;;;;;;;13.74;88.16;101991.69;7385870;19;20018;-68
2021/12/13 09:58:26;;;;;;;7.78;2.00;;;;;;;13.76;88.01;101984.47;7385695;19;20505;-69
2021/12/13 10:01:04;;;;;;;6.68;1.02;;;;;;;13.73;87.53;101992.66;7389224;19;20366;-70
2021/12/13 10:03:43;;;;;;;3.80;1.38;;;;;;;13.75;87.56;101986.28;7388030;19;20052;-68
2021/12/13 10:06:16;;;;;;;4.95;0.70;;;;;;;13.78;88.19;101983.31;7387200;19;20031;-69
2021/12/13 10:08:47;;;;;;;3.25;0.57;;;;;;;13.77;86.93;101984.28;7388847;19;20019;-67
2021/12/13 10:11:23;;;;;;;2.35;0.80;;;;;;;13.79;87.12;101984.16;7391021;19;20014;-69
2021/12/13 10:13:51;;;;;;;3.85;0.60;;;;;;;13.78;86.84;101991.25;7386589;19;20527;-67
2021/12/13 10:16:26;;;;;;;3.20;1.10;;;;;;;13.81;87.15;101985.69;7386799;19;20081;-69
2021/12/13 10:18:55;;;;;;;5.47;0.60;;;;;;;13.88;87.73;101994.69;7388870;19;20010;-69
2021/12/13 10:21:27;;;;;;;12.25;3.53;;;;;;;13.91;86.58;101991.78;7385488;19;20006;-66
2021/12/13 10:24:01;;;;;;;3.13;0.57;;;;;;;13.95;87.45;101992.31;7384658;19;20014;-68
2021/12/13 10:26:35;;;;;;;3.67;0.68;;;;;;;13.99;86.26;102002.47;7386323;19;20027;-68
2021/12/13 10:29:14;;;;;;;2.88;1.10;;;;;;;14.01;86.10;102002.31;7384815;19;20010;-70
2021/12/13 10:31:42;;;;;;;5.90;0.50;;;;;;;14.03;86.48;102003.00;7386718;19;20011;-69
2021/12/13 10:34:15;;;;;;;5.57;0.60;;;;;;;14.08;86.14;101990.16;7387515;19;20014;-69
2021/12/13 10:36:49;;;;;;;2.05;0.40;;;;;;;14.09;85.19;101992.66;7390596;19;20063;-70
2021/12/13 10:39:21;;;;;;;4.28;0.63;;;;;;;14.10;84.64;101980.25;7391261;19;20014;-68
2021/12/13 10:42:07;;;;;;;4.05;0.52;;;;;;;14.04;84.28;101991.44;7390908;19;20010;-66
2021/12/13 10:44:35;;;;;;;5.45;0.40;;;;;;;14.01;83.74;101992.56;7395899;19;20511;-69
2021/12/13 10:47:08;;;;;;;5.80;2.63;;;;;;;14.00;84.64;101995.34;7392071;19;20439;-68
2021/12/13 10:49:48;;;;;;;3.75;0.40;;;;;;;13.96;84.28;101988.69;7395720;19;20451;-68
2021/12/13 10:52:23;;;;;;;4.35;1.27;;;;;;;13.93;84.23;101992.44;7394761;19;20368;-69
2021/12/13 10:54:57;;;;;;;4.10;0.60;;;;;;;13.94;84.67;102001.22;7391486;19;20015;-68
2021/12/13 10:57:30;;;;;;;3.10;0.43;;;;;;;13.94;84.34;101996.78;7392605;19;20036;-67
2021/12/13 10:59:58;;;;;;;;;;;;;;;13.96;84.44;102004.56;7398592;19;20010;-69
2021/12/13 11:02:31;;;;;;;2.83;0.40;;;;;;;13.99;85.15;101996.34;7393443;19;20651;-67
2021/12/13 11:05:05;;;;;;;5.05;0.85;;;;;;;14.03;84.91;101980.00;7392522;19;20006;-68
2021/12/13 11:07:33;;;;;;;3.95;0.30;;;;;;;14.06;83.70;101989.50;7393586;19;20015;-70
2021/12/13 11:10:01;;;;;;;1.55;0.20;;;;;;;14.04;82.98;101984.34;7392932;19;20030;-67
2021/12/13 11:12:36;;;;;;;5.53;0.40;;;;;;;14.06;82.93;101987.69;7391276;19;20017;-67
2021/12/13 11:15:09;;;;;;;1.92;0.20;;;;;;;14.07;82.64;101981.38;7391208;19;20011;-69
2021/12/13 11:17:37;;;;;;;3.95;0.50;;;;;;;14.05;82.68;101970.13;7392899;19;20007;-67
2021/12/13 11:20:10;;;;;;;2.47;0.25;;;;;;;14.07;82.90;101985.84;7378674;19;20022;-69
2021/12/13 11:22:38;;;;;;;1.30;0.60;;;;;;;14.08;83.03;101988.34;7385745;19;20071;-68
2021/12/13 11:25:13;;;;;;;2.25;0.22;;;;;;;14.10;83.41;101973.16;7394878;19;20263;-68
2021/12/13 11:27:41;;;;;;;1.90;0.40;;;;;;;14.17;82.69;101989.25;7397664;19;20090;-69
2021/12/13 11:30:13;;;;;;;4.45;0.60;;;;;;;14.21;84.43;101990.66;7392770;19;20494;-68
2021/12/13 11:32:47;;;;;;;3.03;0.40;;;;;;;14.25;83.27;101985.91;7394232;19;20019;-66
2021/12/13 11:35:24;;;;;;;1.95;0.20;;;;;;;14.24;82.22;101993.00;7394045;19;20027;-67
2021/12/13 11:37:54;;;;;;;3.72;0.30;;;;;;;14.27;81.06;102003.31;7388586;19;20123;-69
2021/12/13 11:40:22;;;;;;;3.60;0.30;;;;;;;14.24;80.78;102000.94;7393105;19;20042;-69
2021/12/13 11:43:03;;;;;;;0.47;0.20;;;;;;;14.21;81.38;102006.53;7393531;19;20015;-68
2021/12/13 11:45:41;;;;;;;1.98;0.40;;;;;;;14.18;80.70;102003.34;7393385;19;20019;-68
2021/12/13 11:48:27;;;;;;;3.70;1.40;;;;;;;14.20;81.77;102002.22;7391322;19;20018;-68
2021/12/13 11:51:05;;;;;;;3.42;0.80;;;;;;;14.18;81.78;102009.47;7393216;19;20020;-68
2021/12/13 11:53:36;;;;;;;3.28;0.60;;;;;;;14.21;82.29;102011.00;7394555;19;20003;-67
2021/12/13 11:56:10;;;;;;;3.25;0.70;;;;;;;14.21;82.69;102011.84;7394717;19;20522;-67
2021/12/13 11:58:52;;;;;;;3.10;0.30;;;;;;;14.20;82.05;102001.38;7392116;19;20015;-69
2021/12/13 12:01:25;;;;;;;0.88;0.32;;;;;;;14.20;82.70;102009.34;7393752;19;20038;-67